Half Day, Illinois
Current Conditions -  °F | °C
As of 6:52 PM on Monday 24 Nov 2014 (Local Time) from KPWK Reporting Station
Overcast Overcast  
Wind Chill: -10°   Ceiling: 1500
Heat Index: -3°   Visibility: 9mi
Dew Point: -6°   Wind: 20mph
Humidity: 78%   Direction: 250°WSW
Pressure: 29.67"   Gusts: 29mph
Location:  42.1941°N, 87.9317°W
Report Text: KPWK 250052Z 25017G25KT 9SM OVC015 M03/M06 A2967 RMK AO2 SLP053 T10281061
Loading
Personal Weather Stations






























Interactive Weather Map New forecast layout! Learn more

10-Day Weather Forecast

Advertisements
Track Severe Weather on mobile